Time;durP1;ratioP1;P1;durP2;ratioP2;P2;SDS_P1;SDS_P2;PMS_P1;PMS_P2;Temp;Humidity;BMP_temperature;BMP_pressure;BME280_temperature;BME280_humidity;BME280_pressure;Samples;Min_cycle;Max_cycle;Signal;HPM_P1;HPM_P2
2021/05/05 00:00:50;;;;;;;7.57;4.53;;;;;;;5.18;75.08;98674.72;10267608;28;20251;-72
2021/05/05 00:05:53;;;;;;;12.20;6.32;;;;;;;4.84;78.03;98674.91;10266714;28;20247;-72
2021/05/05 00:10:55;;;;;;;10.05;6.70;;;;;;;4.54;78.51;98675.66;10267721;28;20732;-72
2021/05/05 00:15:58;;;;;;;7.22;5.93;;;;;;;4.57;79.00;98688.72;10290572;28;20242;-71
2021/05/05 00:21:00;;;;;;;13.20;8.90;;;;;;;4.54;80.26;98679.16;10307176;28;20245;-72
2021/05/05 00:26:02;;;;;;;15.43;6.47;;;;;;;4.35;80.44;98684.31;10307840;28;20239;-72
2021/05/05 00:31:04;;;;;;;15.77;9.50;;;;;;;4.48;80.43;98681.50;10307643;28;20555;-72
2021/05/05 00:36:07;;;;;;;16.85;10.30;;;;;;;4.49;80.10;98688.50;10307968;28;20732;-72
2021/05/05 00:41:11;;;;;;;10.63;7.28;;;;;;;4.51;79.17;98683.91;10304888;28;20358;-71
2021/05/05 00:46:14;;;;;;;10.80;6.95;;;;;;;4.78;78.45;98678.94;10306955;28;20234;-72
2021/05/05 00:51:16;;;;;;;6.50;3.88;;;;;;;4.67;77.37;98670.19;10301909;28;20231;-72
2021/05/05 00:56:19;;;;;;;11.10;6.43;;;;;;;5.01;76.52;98686.81;10314571;28;20742;-71
2021/05/05 01:01:22;;;;;;;7.90;5.53;;;;;;;4.77;75.67;98679.06;10313990;28;20299;-72
2021/05/05 01:06:24;;;;;;;4.33;3.13;;;;;;;4.66;75.61;98677.28;10311692;28;20242;-72
2021/05/05 01:11:27;;;;;;;10.97;6.17;;;;;;;4.80;75.89;98681.44;10312838;28;20866;-72
2021/05/05 01:16:30;;;;;;;7.20;4.40;;;;;;;4.58;76.40;98667.31;10287864;28;20293;-71
2021/05/05 01:21:33;;;;;;;9.27;4.68;;;;;;;4.69;76.33;98669.09;10272824;28;20236;-72
2021/05/05 01:26:35;;;;;;;12.23;6.37;;;;;;;4.60;75.76;98670.66;10271117;28;20274;-71
2021/05/05 01:31:37;;;;;;;10.90;6.73;;;;;;;4.66;75.68;98664.00;10272727;28;20236;-71
2021/05/05 01:36:43;;;;;;;6.70;3.97;;;;;;;4.61;74.27;98683.03;10272000;28;20238;-71
2021/05/05 01:41:46;;;;;;;6.63;4.90;;;;;;;4.46;74.12;98647.06;10270711;28;20235;-71
2021/05/05 01:46:48;;;;;;;8.55;5.85;;;;;;;4.91;73.93;98661.94;10270803;28;20239;-71
2021/05/05 01:51:53;;;;;;;8.75;5.68;;;;;;;4.73;73.68;98657.19;10287849;28;20335;-71
2021/05/05 01:57:23;;;;;;;8.53;5.50;;;;;;;4.69;74.33;98669.09;10271533;28;20239;-70
2021/05/05 02:02:30;;;;;;;10.90;6.70;;;;;;;4.59;74.79;98663.69;10271086;28;20955;-71
2021/05/05 02:07:33;;;;;;;8.73;6.38;;;;;;;4.42;74.63;98664.25;10270973;28;20892;-71
2021/05/05 02:12:35;;;;;;;11.40;7.50;;;;;;;4.32;75.29;98642.03;10270985;28;20320;-70
2021/05/05 02:17:38;;;;;;;9.85;7.35;;;;;;;4.39;74.49;98656.53;10307983;28;20239;-71
2021/05/05 02:22:41;;;;;;;12.60;7.70;;;;;;;4.48;74.84;98655.75;10311713;28;20300;-71
2021/05/05 02:27:45;;;;;;;8.50;5.57;;;;;;;4.38;74.45;98652.16;10310322;28;20265;-71
2021/05/05 02:32:54;;;;;;;8.23;5.97;;;;;;;4.22;74.48;98649.09;10309971;28;20231;-70
2021/05/05 02:37:57;;;;;;;7.47;5.07;;;;;;;4.64;74.05;98659.81;10311574;28;20242;-71
2021/05/05 02:43:00;;;;;;;10.75;6.82;;;;;;;4.62;74.13;98644.81;10307104;28;20238;-70
2021/05/05 02:48:02;;;;;;;7.22;4.72;;;;;;;4.60;73.22;98646.75;10311705;28;20265;-71
2021/05/05 02:53:06;;;;;;;11.85;6.80;;;;;;;4.68;73.77;98640.78;10309714;28;20234;-71
2021/05/05 02:58:08;;;;;;;9.35;7.20;;;;;;;4.82;73.23;98631.63;10308231;28;20704;-71
2021/05/05 03:03:10;;;;;;;13.52;7.40;;;;;;;4.69;73.21;98621.22;10310437;28;20227;-71
2021/05/05 03:08:14;;;;;;;9.65;6.50;;;;;;;4.70;73.59;98645.97;10308638;28;20312;-71
2021/05/05 03:13:16;;;;;;;12.25;7.68;;;;;;;4.77;73.66;98637.38;10309653;28;20223;-71
2021/05/05 03:18:18;;;;;;;12.63;7.43;;;;;;;4.50;74.39;98642.31;10269829;28;20239;-71
2021/05/05 03:23:21;;;;;;;7.55;5.95;;;;;;;4.63;73.33;98661.59;10269023;28;21375;-71
2021/05/05 03:28:23;;;;;;;9.40;7.25;;;;;;;4.56;73.35;98657.78;10269779;28;20255;-72
2021/05/05 03:33:25;;;;;;;9.85;6.78;;;;;;;4.80;72.60;98641.56;10268376;28;20238;-71
2021/05/05 03:38:28;;;;;;;7.30;4.73;;;;;;;4.42;72.04;98642.97;10269388;28;20683;-71
2021/05/05 03:43:30;;;;;;;9.00;6.43;;;;;;;4.66;71.88;98653.34;10267234;28;20611;-71
2021/05/05 03:48:32;;;;;;;7.38;5.35;;;;;;;4.46;71.99;98641.75;10251300;28;20240;-71
2021/05/05 03:53:35;;;;;;;7.88;4.75;;;;;;;4.71;71.60;98656.47;10269077;28;20243;-71
2021/05/05 03:58:37;;;;;;;9.35;4.88;;;;;;;4.44;74.20;98656.13;10267586;28;20310;-71
2021/05/05 04:03:39;;;;;;;5.10;4.10;;;;;;;4.13;74.56;98656.84;10269067;28;20374;-71
2021/05/05 04:08:41;;;;;;;12.50;6.73;;;;;;;4.51;74.30;98660.81;10268458;28;20247;-71
2021/05/05 04:13:43;;;;;;;8.67;5.97;;;;;;;4.56;74.02;98655.97;10272860;28;20364;-71
2021/05/05 04:19:04;;;;;;;11.65;6.53;;;;;;;4.40;75.04;98676.81;10307984;28;20314;-71
2021/05/05 04:24:25;;;;;;;9.32;5.00;;;;;;;4.02;74.56;98675.47;10307710;28;20235;-71
2021/05/05 04:29:27;;;;;;;7.33;5.07;;;;;;;4.08;74.80;98669.66;10306891;28;20243;-71
2021/05/05 04:34:29;;;;;;;6.75;5.00;;;;;;;3.99;74.57;98673.06;10307281;28;21475;-71
2021/05/05 04:39:32;;;;;;;10.25;6.95;;;;;;;4.10;74.76;98688.97;10309540;28;20323;-72
2021/05/05 04:44:35;;;;;;;11.63;7.03;;;;;;;4.42;73.47;98682.03;10308838;28;20234;-72
2021/05/05 04:49:37;;;;;;;6.03;4.27;;;;;;;4.27;73.34;98686.75;10309690;28;20243;-72
2021/05/05 04:54:40;;;;;;;10.02;4.70;;;;;;;4.44;72.45;98694.19;10309219;28;20242;-72
2021/05/05 04:59:42;;;;;;;5.13;4.10;;;;;;;4.34;72.25;98712.72;10308124;28;20239;-72
2021/05/05 05:04:44;;;;;;;9.00;4.23;;;;;;;4.57;71.91;98707.31;10308834;28;20227;-72
2021/05/05 05:09:51;;;;;;;8.23;4.37;;;;;;;4.84;70.92;98720.97;10306642;28;20612;-72
2021/05/05 05:14:53;;;;;;;5.50;3.38;;;;;;;4.53;71.65;98720.03;10293364;28;20231;-72
2021/05/05 05:19:55;;;;;;;8.23;4.35;;;;;;;4.17;72.52;98726.56;10268303;28;20785;-72
2021/05/05 05:24:58;;;;;;;9.98;5.20;;;;;;;4.38;72.36;98723.94;10267128;28;20240;-72
2021/05/05 05:30:00;;;;;;;6.63;4.43;;;;;;;4.35;71.78;98717.06;10268346;28;20243;-72
2021/05/05 05:35:03;;;;;;;7.85;5.40;;;;;;;4.53;70.62;98751.09;10268324;28;20238;-73
2021/05/05 05:40:08;;;;;;;7.70;3.10;;;;;;;4.27;70.97;98722.16;10272667;28;20239;-72
2021/05/05 05:45:11;;;;;;;4.37;2.73;;;;;;;4.32;71.13;98743.06;10274569;28;20238;-72
2021/05/05 05:50:14;;;;;;;6.63;2.92;;;;;;;4.43;70.86;98751.00;10273121;28;20235;-72
2021/05/05 05:55:19;;;;;;;7.60;2.58;;;;;;;4.49;70.90;98762.94;10273467;28;20239;-72
2021/05/05 06:00:22;;;;;;;2.58;2.38;;;;;;;4.38;71.07;98753.19;10271834;28;20240;-72
2021/05/05 06:05:24;;;;;;;8.85;3.88;;;;;;;4.58;70.27;98765.72;10273084;28;20251;-72
2021/05/05 06:10:28;;;;;;;8.15;4.07;;;;;;;4.81;69.33;98773.59;10275314;28;21459;-72
2021/05/05 06:15:30;;;;;;;7.60;4.85;;;;;;;4.59;70.42;98771.88;10289657;28;20235;-72
2021/05/05 06:20:32;;;;;;;7.25;4.15;;;;;;;5.14;68.88;98799.25;10311882;28;20246;-72
2021/05/05 06:25:35;;;;;;;6.65;3.42;;;;;;;5.14;68.48;98788.63;10311637;28;20242;-72
2021/05/05 06:30:37;;;;;;;5.22;3.38;;;;;;;5.24;67.76;98788.69;10310520;28;20384;-72
2021/05/05 06:35:39;;;;;;;5.60;3.45;;;;;;;5.84;65.83;98799.56;10310984;28;20615;-72
2021/05/05 06:40:42;;;;;;;5.22;2.88;;;;;;;5.30;67.16;98797.97;10312921;28;20247;-72
2021/05/05 06:45:44;;;;;;;7.35;3.95;;;;;;;5.32;66.73;98814.66;10312181;28;20267;-72
2021/05/05 06:50:52;;;;;;;5.45;2.97;;;;;;;5.26;66.72;98830.16;10311445;28;20292;-72
2021/05/05 06:55:54;;;;;;;4.85;2.17;;;;;;;5.18;67.31;98831.78;10309848;28;20235;-72
2021/05/05 07:00:56;;;;;;;12.15;3.33;;;;;;;5.25;66.25;98832.97;10309519;28;21499;-72
2021/05/05 07:05:59;;;;;;;8.82;3.15;;;;;;;5.50;66.99;98837.91;10310490;28;20239;-72
2021/05/05 07:11:02;;;;;;;4.78;3.10;;;;;;;4.84;67.20;98819.41;10309151;28;20258;-72
2021/05/05 07:16:04;;;;;;;8.18;3.10;;;;;;;5.54;66.05;98845.63;10288668;28;20239;-72
2021/05/05 07:21:06;;;;;;;10.30;2.97;;;;;;;5.48;64.66;98841.69;10308785;28;20377;-72
2021/05/05 07:26:09;;;;;;;10.07;5.05;;;;;;;5.36;65.79;98846.22;10311004;28;20338;-72
2021/05/05 07:31:11;;;;;;;5.85;2.72;;;;;;;5.15;66.49;98835.53;10307671;28;20242;-72
2021/05/05 07:36:14;;;;;;;6.25;3.75;;;;;;;5.41;65.06;98830.72;10310634;28;20257;-72
2021/05/05 07:46:35;;;;;;;8.57;3.90;;;;;;;6.04;63.49;98844.00;10298590;28;20884;-72
2021/05/05 07:51:37;;;;;;;5.03;2.80;;;;;;;5.94;63.81;98835.94;10310120;28;20245;-72
2021/05/05 07:56:40;;;;;;;9.15;4.72;;;;;;;5.91;63.48;98851.34;10311029;28;20329;-73
2021/05/05 08:01:41;;;;;;;7.00;3.45;;;;;;;6.08;63.12;98837.41;10309171;28;20864;-72
2021/05/05 08:06:43;;;;;;;4.55;3.35;;;;;;;6.04;63.06;98833.31;10309838;28;20239;-72
2021/05/05 08:11:46;;;;;;;10.43;3.83;;;;;;;5.65;65.65;98856.22;10309918;28;20234;-72
2021/05/05 08:16:48;;;;;;;6.25;4.45;;;;;;;4.99;69.22;98851.94;10279380;28;20227;-74
2021/05/05 08:21:50;;;;;;;4.10;2.88;;;;;;;5.45;67.93;98865.91;10269119;28;20341;-72
2021/05/05 08:26:54;;;;;;;6.32;3.90;;;;;;;6.10;65.79;98858.59;10268075;28;20251;-72
2021/05/05 08:31:56;;;;;;;8.10;4.40;;;;;;;6.26;62.89;98868.78;10267574;28;20612;-72
2021/05/05 08:36:58;;;;;;;6.32;3.45;;;;;;;6.23;63.33;98840.56;10268574;28;20760;-72
2021/05/05 08:42:01;;;;;;;9.35;3.38;;;;;;;6.53;60.20;98873.53;10282371;28;20227;-72
2021/05/05 08:47:03;;;;;;;5.03;4.50;;;;;;;6.52;62.26;98874.50;10267878;28;20600;-72
2021/05/05 08:52:06;;;;;;;6.00;2.63;;;;;;;5.99;63.73;98872.03;10267137;28;20235;-72
2021/05/05 08:57:08;;;;;;;6.15;4.03;;;;;;;7.10;61.61;98879.16;10267093;28;20239;-72
2021/05/05 09:02:10;;;;;;;7.68;2.92;;;;;;;7.85;57.38;98872.25;10267920;28;20231;-72
2021/05/05 09:07:28;;;;;;;4.40;2.95;;;;;;;7.30;58.71;98874.69;10268531;28;20302;-72
2021/05/05 09:12:35;;;;;;;6.38;3.92;;;;;;;6.63;58.79;98872.56;10272038;28;20708;-72
2021/05/05 09:17:39;;;;;;;3.55;2.83;;;;;;;6.87;57.29;98923.91;10303159;28;20228;-72
2021/05/05 09:22:43;;;;;;;6.57;3.22;;;;;;;6.97;57.26;98882.09;10274331;28;20232;-72
2021/05/05 09:28:10;;;;;;;8.20;3.28;;;;;;;6.98;56.61;98889.13;10245558;28;20232;-72
2021/05/05 09:33:22;;;;;;;3.97;2.45;;;;;;;7.00;57.00;98903.19;10231310;28;20258;-71
2021/05/05 09:38:39;;;;;;;7.45;2.95;;;;;;;7.52;56.30;98884.25;10232521;28;20638;-71
2021/05/05 09:43:41;;;;;;;7.15;2.53;;;;;;;6.74;57.57;98916.97;10231957;28;20607;-72
2021/05/05 09:48:43;;;;;;;6.10;3.40;;;;;;;7.78;57.22;98879.97;10231193;28;20247;-71
2021/05/05 09:53:47;;;;;;;10.23;3.58;;;;;;;8.53;55.00;98918.41;10234008;28;20228;-71
2021/05/05 09:58:49;;;;;;;8.88;2.83;;;;;;;8.24;55.03;98896.22;10232828;28;20346;-71
2021/05/05 10:03:53;;;;;;;4.88;2.60;;;;;;;7.76;55.45;98900.66;10232530;28;20285;-71
2021/05/05 10:08:57;;;;;;;9.85;4.32;;;;;;;7.57;58.47;98904.22;10233236;28;20267;-72
2021/05/05 10:14:01;;;;;;;4.20;2.22;;;;;;;6.80;59.11;98916.44;10244840;28;21490;-72
2021/05/05 10:19:04;;;;;;;3.22;2.58;;;;;;;6.53;66.29;98921.56;10259126;28;20255;-72
2021/05/05 10:24:09;;;;;;;5.15;2.83;;;;;;;6.62;68.85;98928.75;10264518;28;20654;-72
2021/05/05 10:29:12;;;;;;;5.55;2.75;;;;;;;8.44;63.14;98932.59;10244423;28;20706;-71
2021/05/05 10:34:20;;;;;;;6.10;2.83;;;;;;;8.46;59.38;98916.44;10246311;28;20228;-71
2021/05/05 10:39:34;;;;;;;2.95;2.63;;;;;;;10.36;55.28;98946.69;10258323;28;20238;-71
2021/05/05 10:44:38;;;;;;;3.50;2.33;;;;;;;9.68;53.88;98941.94;10271028;28;20232;-71
2021/05/05 10:50:11;;;;;;;6.07;3.25;;;;;;;8.44;55.67;98935.28;10270086;28;20331;-72
2021/05/05 10:55:15;;;;;;;3.00;1.92;;;;;;;8.17;54.50;98973.50;10250635;28;20251;-71
2021/05/05 11:00:18;;;;;;;6.35;2.75;;;;;;;7.64;55.12;98950.75;10272585;28;20235;-71
2021/05/05 11:05:31;;;;;;;4.78;2.85;;;;;;;7.78;56.25;98965.53;10260161;28;20238;-71
2021/05/05 11:10:50;;;;;;;5.60;2.60;;;;;;;7.85;56.14;98982.69;10233900;28;20240;-71
2021/05/05 11:15:57;;;;;;;3.55;2.15;;;;;;;8.42;51.96;98931.06;10270465;28;20238;-71
2021/05/05 11:21:01;;;;;;;4.13;2.53;;;;;;;8.47;55.08;98975.16;10282477;28;20239;-71
2021/05/05 11:26:15;;;;;;;5.00;2.17;;;;;;;4.72;73.86;99011.97;10247491;28;20367;-72
2021/05/05 11:31:18;;;;;;;2.85;1.42;;;;;;;3.92;77.49;99009.25;10244086;28;20240;-71
2021/05/05 11:36:20;;;;;;;3.25;1.88;;;;;;;5.00;78.48;99039.09;10252600;28;20736;-71
2021/05/05 11:41:22;;;;;;;3.25;1.95;;;;;;;6.48;72.60;99036.66;10228759;28;20240;-71
2021/05/05 11:46:26;;;;;;;3.95;1.83;;;;;;;8.25;70.52;99031.63;10241165;28;20294;-72
2021/05/05 11:51:28;;;;;;;4.05;1.70;;;;;;;9.12;60.84;99023.41;10266978;28;20244;-72
2021/05/05 11:56:30;;;;;;;3.35;2.20;;;;;;;9.63;59.99;99089.03;10270058;28;20235;-72
2021/05/05 12:01:37;;;;;;;4.63;2.42;;;;;;;9.52;61.41;99043.66;10268083;28;20262;-72
2021/05/05 12:06:55;;;;;;;4.65;3.08;;;;;;;8.70;57.50;99005.13;10286378;28;20238;-71
2021/05/05 12:12:17;;;;;;;3.08;1.75;;;;;;;9.21;59.14;99041.25;10308182;28;20238;-71
2021/05/05 12:17:33;;;;;;;5.00;2.40;;;;;;;7.13;68.96;99045.28;10292242;28;20223;-71
2021/05/05 12:22:36;;;;;;;5.47;2.40;;;;;;;5.34;78.75;99118.91;10269050;28;20246;-71
2021/05/05 12:27:39;;;;;;;5.60;1.58;;;;;;;3.53;82.16;99104.19;10269545;28;20235;-71
2021/05/05 12:32:44;;;;;;;3.08;1.17;;;;;;;3.77;81.36;99130.78;10269384;28;20223;-71
2021/05/05 12:51:24;;;;;;;3.08;1.95;;;;;;;6.55;75.38;99151.66;10274680;28;20240;-70
2021/05/05 12:56:41;;;;;;;3.17;1.77;;;;;;;6.87;73.81;99158.78;10274125;28;20552;-70
2021/05/05 13:01:42;;;;;;;3.60;1.98;;;;;;;7.53;70.44;99127.25;10275594;28;20747;-70
2021/05/05 13:06:46;;;;;;;6.82;2.47;;;;;;;8.35;64.16;99134.16;10275841;28;20337;-69
2021/05/05 13:11:52;;;;;;;5.78;2.13;;;;;;;8.79;63.24;99158.69;10275539;28;20910;-70
2021/05/05 13:17:09;;;;;;;2.95;1.70;;;;;;;8.28;63.74;99175.81;10303531;28;20238;-70
2021/05/05 13:32:54;;;;;;;2.90;1.70;;;;;;;9.31;57.66;99163.66;10273968;28;20239;-71
2021/05/05 13:38:08;;;;;;;1.80;1.48;;;;;;;8.49;59.45;99183.75;10274745;28;20673;-71
2021/05/05 13:43:23;;;;;;;2.95;1.67;;;;;;;6.58;69.34;99210.13;10273224;28;20236;-70
2021/05/05 13:48:37;;;;;;;5.90;1.98;;;;;;;3.86;77.28;99278.88;10272029;28;21391;-70
2021/05/05 13:53:45;;;;;;;9.38;2.70;;;;;;;3.78;83.04;99262.63;10274880;28;20235;-70
2021/05/05 13:58:48;;;;;;;6.07;2.85;;;;;;;4.05;79.60;99278.41;10272966;28;20250;-70
2021/05/05 14:03:50;;;;;;;4.82;2.05;;;;;;;4.55;78.39;99279.22;10273146;28;20231;-70
2021/05/05 14:08:53;;;;;;;2.45;1.88;;;;;;;5.05;76.74;99293.25;10273629;28;20236;-70
2021/05/05 14:13:55;;;;;;;4.10;1.95;;;;;;;6.32;77.83;99294.94;10276698;28;20227;-71
2021/05/05 14:18:57;;;;;;;3.53;2.08;;;;;;;7.75;73.16;99305.28;10314094;28;21547;-71
2021/05/05 14:24:00;;;;;;;6.20;2.45;;;;;;;7.33;69.31;99321.34;10313825;28;20231;-71
2021/05/05 14:29:03;;;;;;;8.68;2.42;;;;;;;7.15;67.15;99291.66;10311323;28;20780;-71
2021/05/05 14:34:05;;;;;;;3.92;2.08;;;;;;;7.64;64.24;99306.22;10313314;28;20632;-71
2021/05/05 14:39:11;;;;;;;10.77;2.90;;;;;;;8.88;64.49;99307.78;10314417;28;20231;-69
2021/05/05 14:44:17;;;;;;;5.20;1.85;;;;;;;9.49;56.83;99294.09;10311518;28;20860;-71
2021/05/05 14:49:19;;;;;;;14.63;3.90;;;;;;;9.64;55.96;99301.66;10326768;28;20227;-70
2021/05/05 14:54:21;;;;;;;7.07;2.40;;;;;;;10.44;51.31;99308.31;10303476;28;21360;-70
2021/05/05 14:59:23;;;;;;;11.27;2.83;;;;;;;9.50;52.30;99317.22;10237647;28;20255;-70
2021/05/05 15:04:25;;;;;;;5.13;1.88;;;;;;;8.57;58.04;99337.31;10231031;28;20240;-70
2021/05/05 15:09:43;;;;;;;7.22;2.25;;;;;;;9.11;57.46;99343.19;10229616;28;20854;-72
2021/05/05 15:15:04;;;;;;;10.05;2.38;;;;;;;8.96;55.30;99342.75;10250354;28;20925;-70
2021/05/05 15:36:22;;;;;;;5.32;2.15;;;;;;;7.58;56.05;99354.00;10271636;28;20732;-71
2021/05/05 15:41:28;;;;;;;5.80;2.00;;;;;;;8.42;53.81;99380.63;10268930;28;21730;-71
2021/05/05 15:46:33;;;;;;;3.78;1.40;;;;;;;8.92;51.56;99378.00;10269347;28;20621;-71
2021/05/05 15:51:35;;;;;;;6.40;1.88;;;;;;;9.01;49.61;99388.72;10268763;28;20326;-71
2021/05/05 15:56:38;;;;;;;4.53;1.90;;;;;;;9.10;48.52;99386.19;10305857;28;20416;-71
2021/05/05 16:01:45;;;;;;;7.93;2.55;;;;;;;10.15;46.81;99400.53;10309760;28;20239;-71
2021/05/05 16:12:19;;;;;;;4.32;1.40;;;;;;;9.75;44.21;99386.47;10308821;28;20230;-71
2021/05/05 16:17:21;;;;;;;7.18;2.33;;;;;;;10.07;44.39;99399.56;10276699;28;20740;-71
2021/05/05 16:22:27;;;;;;;5.32;1.77;;;;;;;11.16;44.22;99416.78;10266796;28;20238;-71
2021/05/05 16:28:12;;;;;;;5.90;1.83;;;;;;;9.63;44.83;99410.75;10268120;28;20244;-70
2021/05/05 16:44:17;;;;;;;3.75;2.03;;;;;;;9.68;44.73;99434.44;10266946;28;20227;-70
2021/05/05 16:49:29;;;;;;;5.20;1.90;;;;;;;10.11;45.17;99431.31;10267833;28;20236;-70
2021/05/05 16:54:32;;;;;;;7.30;2.38;;;;;;;9.79;45.54;99431.63;10257267;28;20244;-70
2021/05/05 16:59:49;;;;;;;8.18;2.45;;;;;;;9.67;45.56;99430.09;10268105;28;20721;-70
2021/05/05 17:05:12;;;;;;;6.57;2.13;;;;;;;8.14;48.25;99457.91;10268238;28;20227;-70
2021/05/05 17:10:17;;;;;;;8.65;2.30;;;;;;;8.52;49.44;99451.97;10267617;28;20747;-71
2021/05/05 17:15:23;;;;;;;3.97;1.55;;;;;;;11.20;39.27;99458.47;10262001;28;20231;-71
2021/05/05 17:20:43;;;;;;;7.40;2.17;;;;;;;10.44;40.76;99450.59;10259891;28;20241;-71
2021/05/05 17:25:54;;;;;;;5.60;1.88;;;;;;;10.36;41.14;99472.78;10246149;28;20231;-71
2021/05/05 17:57:45;;;;;;;9.45;2.72;;;;;;;10.43;45.74;99505.28;10259779;28;20236;-71
2021/05/05 18:14:35;;;;;;;6.00;2.08;;;;;;;6.88;53.01;99536.91;10282007;28;20708;-71
2021/05/05 18:19:43;;;;;;;7.43;2.08;;;;;;;6.65;53.46;99528.03;10310993;28;20238;-70
2021/05/05 18:25:12;;;;;;;7.35;2.45;;;;;;;6.58;53.13;99539.19;10312408;28;20239;-71
2021/05/05 18:30:15;;;;;;;5.13;2.00;;;;;;;6.34;54.45;99547.25;10310302;28;20256;-72
2021/05/05 18:35:18;;;;;;;3.88;2.38;;;;;;;6.37;54.71;99554.19;10310770;28;20261;-71
2021/05/05 18:40:24;;;;;;;6.88;2.50;;;;;;;6.20;55.19;99547.47;10268290;28;20247;-70
2021/05/05 19:07:25;;;;;;;10.52;3.22;;;;;;;6.09;56.03;99588.28;10237905;28;20298;-71
2021/05/05 20:33:18;;;;;;;10.70;3.05;;;;;;;5.54;55.23;99677.59;10177080;28;20223;-72
2021/05/05 23:08:40;;;;;;;8.37;2.43;;;;;;;4.40;55.47;99665.91;10272241;28;20266;-72
2021/05/05 23:08:56;;;;;;;8.17;3.37;;;;;;;4.00;56.49;99663.22;10271165;28;20315;-73
2021/05/05 23:25:13;;;;;;;4.60;2.50;;;;;;;4.12;57.01;99658.91;10289915;28;20318;-72
2021/05/05 23:30:30;;;;;;;4.13;2.60;;;;;;;4.01;57.39;99648.13;10307619;28;20736;-72
2021/05/05 23:57:30;;;;;;;6.00;3.07;;;;;;;4.01;57.66;99630.38;10309858;28;20884;-73
